createdAt,value
2022-11-08T00:01:21.183Z,15.50
2022-11-08T00:04:26.517Z,14.07
2022-11-08T00:07:46.579Z,14.88
2022-11-08T00:11:04.006Z,14.73
2022-11-08T00:14:09.286Z,13.82
2022-11-08T00:17:14.413Z,15.75
2022-11-08T00:20:20.155Z,14.13
2022-11-08T00:23:28.174Z,13.45
2022-11-08T00:26:33.353Z,13.50
2022-11-08T00:29:39.150Z,12.40
2022-11-08T00:32:44.242Z,12.90
2022-11-08T00:35:49.748Z,13.63
2022-11-08T00:38:57.687Z,14.27
2022-11-08T00:42:02.781Z,13.47
2022-11-08T00:45:08.664Z,14.65
2022-11-08T00:48:14.090Z,13.32
2022-11-08T00:51:19.083Z,14.05
2022-11-08T00:54:27.078Z,14.65
2022-11-08T00:57:47.280Z,13.77
2022-11-08T01:00:57.652Z,15.05
2022-11-08T01:04:02.871Z,17.42
2022-11-08T01:07:08.603Z,15.10
2022-11-08T01:10:16.256Z,15.77
2022-11-08T01:13:21.799Z,15.93
2022-11-08T01:16:28.470Z,14.07
2022-11-08T01:19:33.759Z,15.52
2022-11-08T01:22:38.756Z,15.38
2022-11-08T01:25:47.274Z,14.52
2022-11-08T01:28:52.343Z,16.67
2022-11-08T01:31:57.798Z,17.30
2022-11-08T01:35:02.957Z,15.27
2022-11-08T01:38:09.932Z,14.65
2022-11-08T01:41:18.094Z,15.57
2022-11-08T01:44:23.191Z,15.43
2022-11-08T01:47:28.187Z,14.85
2022-11-08T01:50:33.777Z,15.13
2022-11-08T01:53:39.081Z,14.73
2022-11-08T01:56:47.183Z,14.07
2022-11-08T01:59:53.923Z,14.55
2022-11-08T02:03:00.981Z,15.48
2022-11-08T02:06:06.814Z,16.25
2022-11-08T02:09:12.676Z,15.55
2022-11-08T02:12:24.006Z,15.80
2022-11-08T02:15:29.220Z,14.45
2022-11-08T02:18:35.342Z,13.13
2022-11-08T02:21:45.580Z,15.23
2022-11-08T02:24:54.518Z,14.15
2022-11-08T02:27:59.998Z,15.98
2022-11-08T02:31:05.196Z,15.68
2022-11-08T02:34:10.801Z,14.98
2022-11-08T02:37:17.215Z,15.00
2022-11-08T02:40:24.880Z,16.05
2022-11-08T02:43:29.883Z,15.93
2022-11-08T02:46:35.012Z,15.25
2022-11-08T02:49:40.829Z,15.43
2022-11-08T02:52:46.426Z,15.02
2022-11-08T02:55:54.096Z,14.32
2022-11-08T02:58:59.262Z,15.82
2022-11-08T03:02:04.418Z,13.77
2022-11-08T03:05:10.445Z,16.92
2022-11-08T03:08:15.650Z,15.48
2022-11-08T03:11:23.823Z,14.35
2022-11-08T03:14:28.962Z,15.63
2022-11-08T03:17:34.304Z,13.68
2022-11-08T03:20:39.375Z,13.98
2022-11-08T03:23:44.582Z,15.25
2022-11-08T03:26:52.474Z,14.45
2022-11-08T03:29:57.717Z,14.75
2022-11-08T03:33:03.052Z,15.05
2022-11-08T03:36:08.845Z,14.98
2022-11-08T03:39:14.379Z,15.35
2022-11-08T03:42:22.013Z,13.80
2022-11-08T03:45:27.498Z,12.82
2022-11-08T03:48:32.462Z,13.27
2022-11-08T03:51:37.656Z,14.43
2022-11-08T03:54:42.853Z,13.27
2022-11-08T03:57:51.544Z,12.30
2022-11-08T04:00:58.412Z,13.68
2022-11-08T04:04:03.850Z,11.93
2022-11-08T04:07:09.001Z,12.82
2022-11-08T04:10:14.663Z,11.93
2022-11-08T04:13:34.660Z,13.00
2022-11-08T04:16:39.978Z,13.20
2022-11-08T04:19:57.716Z,11.68
2022-11-08T04:23:02.785Z,12.83
2022-11-08T04:26:12.037Z,11.50
2022-11-08T04:29:19.676Z,12.40
2022-11-08T04:32:25.068Z,14.27
2022-11-08T04:35:30.233Z,11.73
2022-11-08T04:38:35.989Z,11.40
2022-11-08T04:41:41.448Z,13.27
2022-11-08T04:44:49.030Z,11.95
2022-11-08T04:47:54.277Z,10.47
2022-11-08T04:50:59.539Z,13.63
2022-11-08T04:54:08.045Z,11.25
2022-11-08T04:57:13.086Z,11.77
2022-11-08T05:00:21.289Z,11.98
2022-11-08T05:03:26.314Z,11.45
2022-11-08T05:06:31.991Z,10.77
2022-11-08T05:09:37.311Z,10.93
2022-11-08T05:12:42.557Z,11.63
2022-11-08T05:15:50.375Z,10.98
2022-11-08T05:18:55.582Z,11.27
2022-11-08T05:22:15.669Z,12.07
2022-11-08T05:25:20.709Z,11.07
2022-11-08T05:28:25.924Z,10.13
2022-11-08T05:31:33.668Z,9.98
2022-11-08T05:34:38.860Z,11.23
2022-11-08T05:37:45.157Z,11.07
2022-11-08T05:40:50.325Z,9.93
2022-11-08T05:43:56.421Z,8.77
2022-11-08T05:47:04.205Z,9.88
2022-11-08T05:50:12.405Z,10.98
2022-11-08T05:53:20.974Z,10.07
2022-11-08T05:56:26.587Z,9.50
2022-11-08T05:59:31.960Z,9.07
2022-11-08T06:02:40.118Z,10.13
2022-11-08T06:05:45.291Z,8.32
2022-11-08T06:08:52.245Z,8.55
2022-11-08T06:11:59.475Z,8.48
2022-11-08T06:15:04.778Z,8.18
2022-11-08T06:18:12.892Z,9.02
2022-11-08T06:21:18.728Z,8.85
2022-11-08T06:24:24.087Z,8.50
2022-11-08T06:27:29.558Z,7.57
2022-11-08T06:30:34.777Z,7.93
2022-11-08T06:33:42.467Z,7.97
2022-11-08T06:36:47.531Z,8.83
2022-11-08T06:39:52.833Z,8.52
2022-11-08T06:42:59.077Z,9.15
2022-11-08T06:46:04.604Z,8.45
2022-11-08T06:49:12.412Z,8.48
2022-11-08T06:52:17.665Z,9.43
2022-11-08T06:55:22.974Z,9.15
2022-11-08T06:58:28.001Z,10.82
2022-11-08T07:01:33.478Z,9.48
2022-11-08T07:04:41.517Z,8.63
2022-11-08T07:07:52.112Z,10.73
2022-11-08T07:10:57.454Z,10.15
2022-11-08T07:14:02.758Z,10.00
2022-11-08T07:17:08.323Z,10.10
2022-11-08T07:20:16.613Z,9.75
2022-11-08T07:23:22.254Z,9.85
2022-11-08T07:26:28.094Z,10.35
2022-11-08T07:29:33.417Z,9.93
2022-11-08T07:32:38.497Z,10.00
2022-11-08T07:35:47.739Z,10.20
2022-11-08T07:38:55.289Z,9.93
2022-11-08T07:42:00.510Z,9.48
2022-11-08T07:45:08.582Z,10.90
2022-11-08T07:48:14.550Z,10.18
2022-11-08T07:51:22.533Z,11.23
2022-11-08T07:54:27.724Z,11.35
2022-11-08T07:57:32.886Z,11.43
2022-11-08T08:00:39.201Z,10.65
2022-11-08T08:03:44.481Z,10.57
2022-11-08T08:06:52.406Z,10.48
2022-11-08T08:09:57.691Z,11.13
2022-11-08T08:13:02.717Z,11.93
2022-11-08T08:16:08.270Z,12.18
2022-11-08T08:19:13.753Z,11.63
2022-11-08T08:22:21.530Z,11.23
2022-11-08T08:25:26.844Z,11.40
2022-11-08T08:28:31.988Z,11.18
2022-11-08T08:31:37.219Z,10.50
2022-11-08T08:34:42.460Z,11.20
2022-11-08T08:37:50.131Z,11.02
2022-11-08T08:40:56.127Z,11.10
2022-11-08T08:44:01.407Z,10.50
2022-11-08T08:47:07.357Z,11.13
2022-11-08T08:50:12.932Z,10.65
2022-11-08T08:53:21.152Z,11.45
2022-11-08T09:02:56.361Z,10.40
2022-11-08T09:06:02.662Z,11.13
2022-11-08T09:09:10.873Z,11.40
2022-11-08T09:12:16.302Z,9.90
2022-11-08T09:15:21.764Z,10.82
2022-11-08T09:18:26.906Z,11.13
2022-11-08T09:21:32.149Z,10.00
2022-11-08T09:24:40.277Z,11.77
2022-11-08T09:27:45.232Z,10.25
2022-11-08T09:30:50.637Z,10.93
2022-11-08T09:33:55.909Z,10.43
2022-11-08T09:37:01.437Z,10.90
2022-11-08T09:40:09.723Z,9.13
2022-11-08T09:43:28.048Z,10.85
2022-11-08T09:46:39.808Z,10.15
2022-11-08T09:49:45.968Z,10.00
2022-11-08T09:52:53.579Z,10.90
2022-11-08T09:56:02.553Z,9.93
2022-11-08T09:59:13.603Z,9.88
2022-11-08T10:02:20.037Z,9.77
2022-11-08T10:05:25.513Z,9.00
2022-11-08T10:08:33.434Z,9.40
2022-11-08T10:11:45.681Z,9.50
2022-11-08T10:14:58.063Z,11.23
2022-11-08T10:18:09.419Z,10.35
2022-11-08T10:21:21.404Z,9.35
2022-11-08T10:24:31.884Z,10.65
2022-11-08T10:27:41.924Z,9.10
2022-11-08T10:30:49.431Z,9.10
2022-11-08T10:33:56.590Z,8.53
2022-11-08T10:37:06.714Z,7.72
2022-11-08T10:40:17.248Z,9.23
2022-11-08T10:43:27.071Z,7.13
2022-11-08T10:46:41.573Z,7.57
2022-11-08T10:49:47.254Z,8.45
2022-11-08T10:52:56.910Z,8.30
2022-11-08T10:56:03.397Z,9.07
2022-11-08T10:59:30.684Z,8.00
2022-11-08T11:02:37.411Z,8.10
2022-11-08T11:05:45.096Z,8.10
2022-11-08T11:08:52.555Z,7.13
2022-11-08T11:12:01.133Z,7.75
2022-11-08T11:15:17.399Z,6.68
2022-11-08T11:18:32.433Z,7.85
2022-11-08T11:21:39.457Z,7.20
2022-11-08T11:24:50.376Z,6.45
2022-11-08T11:27:57.835Z,6.28
2022-11-08T11:31:06.979Z,6.72
2022-11-08T11:34:29.590Z,7.07
2022-11-08T11:37:38.059Z,7.30
2022-11-08T11:40:45.771Z,6.50
2022-11-08T11:44:01.212Z,6.70
2022-11-08T11:47:16.149Z,6.90
2022-11-08T11:50:28.217Z,6.38
2022-11-08T11:53:39.071Z,7.38
2022-11-08T11:56:51.818Z,6.07
2022-11-08T12:00:05.454Z,6.60
2022-11-08T12:03:23.993Z,5.78
2022-11-08T12:06:34.370Z,6.47
2022-11-08T12:09:52.773Z,6.03
2022-11-08T12:13:01.817Z,5.80
2022-11-08T12:16:11.289Z,5.97
2022-11-08T12:19:27.711Z,7.10
2022-11-08T12:22:43.958Z,6.50
2022-11-08T12:25:52.917Z,5.78
2022-11-08T12:29:05.911Z,6.55
2022-11-08T12:32:17.319Z,6.40
2022-11-08T12:35:29.415Z,6.70
2022-11-08T12:38:37.459Z,6.95
2022-11-08T12:41:45.723Z,6.90
2022-11-08T12:45:00.839Z,6.38
2022-11-08T12:48:09.299Z,5.45
2022-11-08T12:51:23.279Z,5.93
2022-11-08T12:54:32.487Z,5.22
2022-11-08T12:57:37.879Z,5.63
2022-11-08T13:00:44.632Z,5.60
2022-11-08T13:04:04.678Z,5.03
2022-11-08T13:07:19.213Z,5.70
2022-11-08T13:10:30.905Z,5.15
2022-11-08T13:13:40.535Z,4.50
2022-11-08T13:16:45.992Z,5.35
2022-11-08T13:20:03.637Z,5.18
2022-11-08T13:23:14.579Z,4.97
2022-11-08T13:26:24.259Z,5.15
2022-11-08T13:29:29.705Z,4.68
2022-11-08T13:32:42.970Z,4.82
2022-11-08T13:35:53.833Z,4.30
2022-11-08T13:39:05.976Z,6.32
2022-11-08T13:42:26.132Z,4.18
2022-11-08T13:45:33.363Z,4.18
2022-11-08T13:48:39.678Z,4.40
2022-11-08T13:51:45.185Z,3.95
2022-11-08T13:54:56.526Z,4.25
2022-11-08T13:58:02.946Z,4.18
2022-11-08T14:01:09.400Z,4.10
2022-11-08T14:04:27.051Z,4.20
2022-11-08T14:07:35.140Z,4.20
2022-11-08T14:10:54.206Z,3.75
2022-11-08T14:14:19.813Z,3.60
2022-11-08T14:17:42.731Z,3.45
2022-11-08T14:20:48.399Z,3.60
2022-11-08T14:23:54.141Z,3.50
2022-11-08T14:27:02.026Z,3.80
2022-11-08T14:30:08.614Z,3.27
2022-11-08T14:33:19.992Z,3.80
2022-11-08T14:36:26.120Z,3.40
2022-11-08T14:39:35.838Z,3.78
2022-11-08T14:42:46.065Z,3.20
2022-11-08T14:45:52.652Z,3.70
2022-11-08T14:48:58.437Z,3.53
2022-11-08T14:52:08.243Z,3.65
2022-11-08T14:55:14.760Z,3.58
2022-11-08T14:58:22.784Z,3.70
2022-11-08T15:01:28.736Z,4.03
2022-11-08T15:04:34.992Z,3.55
2022-11-08T15:07:40.796Z,3.90
2022-11-08T15:10:55.083Z,4.18
2022-11-08T15:14:04.170Z,5.15
2022-11-08T15:17:09.464Z,4.50
2022-11-08T15:20:23.229Z,4.25
2022-11-08T15:23:30.569Z,4.65
2022-11-08T15:26:36.609Z,4.25
2022-11-08T15:29:54.664Z,4.13
2022-11-08T15:32:59.918Z,3.65
2022-11-08T15:36:05.721Z,3.85
2022-11-08T15:39:23.128Z,4.85
2022-11-08T15:42:28.597Z,4.47
2022-11-08T15:45:36.522Z,6.32
2022-11-08T15:48:57.845Z,4.25
2022-11-08T15:52:03.848Z,4.70
2022-11-08T15:55:10.135Z,4.40
2022-11-08T15:58:19.068Z,3.88
2022-11-08T16:01:27.149Z,4.45
2022-11-08T16:04:32.473Z,4.43
2022-11-08T16:07:37.886Z,4.53
2022-11-08T16:10:43.896Z,4.72
2022-11-08T16:13:49.580Z,5.30
2022-11-08T16:16:57.421Z,5.25
2022-11-08T16:20:03.340Z,5.32
2022-11-08T16:23:09.450Z,5.93
2022-11-08T16:26:17.681Z,5.10
2022-11-08T16:29:23.714Z,4.97
2022-11-08T16:32:33.436Z,4.53
2022-11-08T16:35:38.579Z,4.95
2022-11-08T16:38:46.934Z,5.53
2022-11-08T16:44:56.948Z,5.43
2022-11-08T16:48:05.509Z,5.63
2022-11-08T16:51:15.444Z,5.38
2022-11-08T16:54:24.154Z,5.60
2022-11-08T16:57:34.627Z,5.63
2022-11-08T17:00:41.155Z,5.60
2022-11-08T17:03:49.023Z,5.85
2022-11-08T17:06:54.259Z,5.53
2022-11-08T17:10:02.530Z,5.57
2022-11-08T17:16:14.242Z,6.38
2022-11-08T17:19:22.168Z,5.20
2022-11-08T17:22:27.244Z,5.80
2022-11-08T17:25:35.469Z,5.55
2022-11-08T17:31:45.795Z,5.80
2022-11-08T17:34:53.477Z,5.60
2022-11-08T17:37:58.877Z,6.28
2022-11-08T17:41:07.136Z,6.13
2022-11-08T17:44:12.249Z,6.68
2022-11-08T17:47:17.625Z,7.28
2022-11-08T17:50:25.628Z,7.32
2022-11-08T17:53:30.854Z,6.63
2022-11-08T17:56:36.067Z,9.52
2022-11-08T17:59:41.841Z,7.47
2022-11-08T18:02:46.860Z,7.30
2022-11-08T18:05:58.922Z,7.07
2022-11-08T18:09:05.288Z,7.95
2022-11-08T18:12:10.454Z,7.65
2022-11-08T18:15:15.816Z,7.47
2022-11-08T18:18:21.606Z,9.18
2022-11-08T18:21:29.652Z,9.77
2022-11-08T18:24:35.174Z,8.27
2022-11-08T18:27:40.332Z,9.25
2022-11-08T18:30:47.857Z,9.82
2022-11-08T18:33:53.662Z,9.10
2022-11-08T18:37:01.718Z,8.48
2022-11-08T18:40:07.322Z,8.98
2022-11-08T18:43:12.855Z,12.27
2022-11-08T18:46:18.577Z,12.25
2022-11-08T18:49:23.733Z,10.07
2022-11-08T18:52:31.340Z,9.63
2022-11-08T18:55:36.775Z,10.27
2022-11-08T18:58:42.165Z,10.90
2022-11-08T19:01:47.679Z,11.32
2022-11-08T19:04:53.004Z,10.77
2022-11-08T19:08:01.078Z,11.32
2022-11-08T19:11:18.895Z,10.30
2022-11-08T19:14:24.572Z,11.27
2022-11-08T19:17:30.965Z,11.10
2022-11-08T19:20:36.195Z,10.25
2022-11-08T19:23:44.072Z,12.32
2022-11-08T19:26:49.569Z,12.55
2022-11-08T19:29:54.630Z,12.27
2022-11-08T19:32:59.871Z,11.93
2022-11-08T19:36:05.501Z,13.52
2022-11-08T19:39:13.956Z,11.98
2022-11-08T19:42:18.941Z,12.88
2022-11-08T19:45:24.613Z,12.13
2022-11-08T19:48:29.821Z,12.60
2022-11-08T19:51:38.103Z,13.07
2022-11-08T19:54:46.075Z,13.05
2022-11-08T19:57:51.098Z,12.30
2022-11-08T20:00:56.257Z,12.77
2022-11-08T20:04:02.018Z,12.40
2022-11-08T20:07:07.058Z,12.25
2022-11-08T20:10:15.377Z,12.27
2022-11-08T20:13:20.647Z,16.10
2022-11-08T20:16:27.167Z,13.90
2022-11-08T20:19:32.345Z,12.32
2022-11-08T20:22:37.403Z,12.82
2022-11-08T20:25:45.247Z,12.88
2022-11-08T20:28:56.258Z,13.35
2022-11-08T20:32:01.959Z,13.45
2022-11-08T20:35:08.685Z,14.10
2022-11-08T20:38:13.954Z,12.48
2022-11-08T20:41:21.795Z,13.70
2022-11-08T20:44:27.120Z,14.00
2022-11-08T20:47:32.862Z,12.80
2022-11-08T20:50:39.377Z,13.35
2022-11-08T20:53:44.791Z,12.93
2022-11-08T20:56:53.046Z,13.02
2022-11-08T21:00:07.019Z,13.38
2022-11-08T21:03:19.179Z,12.02
2022-11-08T21:06:26.067Z,13.52
2022-11-08T21:09:41.643Z,13.23
2022-11-08T21:12:57.065Z,14.50
2022-11-08T21:16:26.797Z,12.80
2022-11-08T21:19:29.165Z,11.90
2022-11-08T21:22:34.284Z,11.70
2022-11-08T21:25:39.436Z,12.73
2022-11-08T21:28:47.357Z,13.73
2022-11-08T21:31:52.538Z,13.32
2022-11-08T21:34:58.044Z,11.73
2022-11-08T21:38:04.173Z,12.98
2022-11-08T21:41:10.319Z,13.60
2022-11-08T21:44:18.197Z,13.23
2022-11-08T21:47:23.381Z,13.15
2022-11-08T21:50:28.605Z,12.80
2022-11-08T21:53:33.641Z,12.93
2022-11-08T21:56:39.174Z,13.73
2022-11-08T21:59:46.827Z,13.40
2022-11-08T22:02:52.137Z,12.90
2022-11-08T22:05:57.129Z,14.63
2022-11-08T22:09:02.551Z,13.95
2022-11-08T22:12:07.608Z,13.43
2022-11-08T22:15:16.120Z,13.68
2022-11-08T22:18:36.363Z,13.27
2022-11-08T22:21:47.856Z,14.27
2022-11-08T22:24:53.277Z,13.38
2022-11-08T22:27:58.446Z,14.07
2022-11-08T22:31:06.439Z,14.02
2022-11-08T22:34:11.691Z,14.27
2022-11-08T22:37:17.206Z,14.77
2022-11-08T22:40:22.280Z,15.10
2022-11-08T22:43:27.519Z,14.18
2022-11-08T22:46:35.106Z,13.98
2022-11-08T22:49:44.882Z,15.45
2022-11-08T22:52:50.357Z,14.23
2022-11-08T22:55:55.763Z,13.52
2022-11-08T22:59:00.978Z,13.68
2022-11-08T23:02:08.832Z,13.80
2022-11-08T23:05:13.888Z,13.35
2022-11-08T23:08:19.246Z,13.90
2022-11-08T23:11:36.786Z,14.25
2022-11-08T23:14:54.306Z,14.50
2022-11-08T23:18:02.020Z,14.40
2022-11-08T23:21:19.516Z,13.82
2022-11-08T23:24:24.579Z,15.35
2022-11-08T23:27:42.588Z,14.73
2022-11-08T23:30:59.912Z,14.85
2022-11-08T23:34:08.104Z,14.68
2022-11-08T23:37:13.126Z,14.43
2022-11-08T23:40:31.418Z,13.48
2022-11-08T23:43:54.288Z,13.75
2022-11-08T23:47:00.716Z,14.30
2022-11-08T23:50:08.853Z,13.65
2022-11-08T23:53:14.099Z,13.20
2022-11-08T23:56:23.625Z,13.73
2022-11-08T23:59:28.890Z,13.75
